sensor_id;sensor_type;location;lat;lon;timestamp;temperature;humidity
4052;DHT22;2040;50.924;11.604;2023-02-12T00:01:38;5.30;99.90
4052;DHT22;2040;50.924;11.604;2023-02-12T00:04:04;5.30;99.90
4052;DHT22;2040;50.924;11.604;2023-02-12T00:06:29;5.30;99.90
4052;DHT22;2040;50.924;11.604;2023-02-12T00:08:56;5.30;99.90
4052;DHT22;2040;50.924;11.604;2023-02-12T00:11:26;5.30;99.90
4052;DHT22;2040;50.924;11.604;2023-02-12T00:13:54;5.20;99.90
4052;DHT22;2040;50.924;11.604;2023-02-12T00:16:23;5.20;99.90
4052;DHT22;2040;50.924;11.604;2023-02-12T00:18:54;5.20;99.90
4052;DHT22;2040;50.924;11.604;2023-02-12T00:21:20;5.30;99.90
4052;DHT22;2040;50.924;11.604;2023-02-12T00:23:46;5.20;99.90
4052;DHT22;2040;50.924;11.604;2023-02-12T00:26:15;5.30;99.90
4052;DHT22;2040;50.924;11.604;2023-02-12T00:28:41;5.30;99.90
4052;DHT22;2040;50.924;11.604;2023-02-12T00:31:11;5.30;99.90
4052;DHT22;2040;50.924;11.604;2023-02-12T00:33:37;5.30;99.90
4052;DHT22;2040;50.924;11.604;2023-02-12T00:36:03;5.30;99.90
4052;DHT22;2040;50.924;11.604;2023-02-12T00:38:28;5.30;99.90
4052;DHT22;2040;50.924;11.604;2023-02-12T00:40:54;5.30;99.90
4052;DHT22;2040;50.924;11.604;2023-02-12T00:43:20;5.20;99.90
4052;DHT22;2040;50.924;11.604;2023-02-12T00:45:46;5.30;99.90
4052;DHT22;2040;50.924;11.604;2023-02-12T00:48:12;5.30;99.90
4052;DHT22;2040;50.924;11.604;2023-02-12T00:50:38;5.30;99.90
4052;DHT22;2040;50.924;11.604;2023-02-12T00:53:06;5.30;99.90
4052;DHT22;2040;50.924;11.604;2023-02-12T00:55:32;5.30;99.90
4052;DHT22;2040;50.924;11.604;2023-02-12T00:57:58;5.30;99.90
4052;DHT22;2040;50.924;11.604;2023-02-12T01:00:24;5.30;99.90
4052;DHT22;2040;50.924;11.604;2023-02-12T01:02:49;5.20;99.90
4052;DHT22;2040;50.924;11.604;2023-02-12T01:05:15;5.30;99.90
4052;DHT22;2040;50.924;11.604;2023-02-12T01:07:40;5.20;99.90
4052;DHT22;2040;50.924;11.604;2023-02-12T01:10:07;5.30;99.90
4052;DHT22;2040;50.924;11.604;2023-02-12T01:12:33;5.30;99.90
4052;DHT22;2040;50.924;11.604;2023-02-12T01:14:58;5.20;99.90
4052;DHT22;2040;50.924;11.604;2023-02-12T01:17:24;5.30;99.90
4052;DHT22;2040;50.924;11.604;2023-02-12T01:19:50;5.30;99.90
4052;DHT22;2040;50.924;11.604;2023-02-12T01:22:15;5.30;99.90
4052;DHT22;2040;50.924;11.604;2023-02-12T01:24:41;5.30;99.90
4052;DHT22;2040;50.924;11.604;2023-02-12T01:27:07;5.30;99.90
4052;DHT22;2040;50.924;11.604;2023-02-12T01:29:32;5.30;99.90
4052;DHT22;2040;50.924;11.604;2023-02-12T01:31:58;5.30;99.90
4052;DHT22;2040;50.924;11.604;2023-02-12T01:34:23;5.20;99.90
4052;DHT22;2040;50.924;11.604;2023-02-12T01:36:49;5.20;99.90
4052;DHT22;2040;50.924;11.604;2023-02-12T01:39:14;5.30;99.90
4052;DHT22;2040;50.924;11.604;2023-02-12T01:41:42;5.20;99.90
4052;DHT22;2040;50.924;11.604;2023-02-12T01:44:18;5.20;99.90
4052;DHT22;2040;50.924;11.604;2023-02-12T01:46:47;5.30;99.90
4052;DHT22;2040;50.924;11.604;2023-02-12T01:49:23;5.20;99.90
4052;DHT22;2040;50.924;11.604;2023-02-12T01:52:04;5.20;99.90
4052;DHT22;2040;50.924;11.604;2023-02-12T01:54:33;5.20;99.90
4052;DHT22;2040;50.924;11.604;2023-02-12T01:57:01;5.30;99.90
4052;DHT22;2040;50.924;11.604;2023-02-12T01:59:28;5.30;99.90
4052;DHT22;2040;50.924;11.604;2023-02-12T02:01:53;5.30;99.90
4052;DHT22;2040;50.924;11.604;2023-02-12T02:04:23;5.30;99.90
4052;DHT22;2040;50.924;11.604;2023-02-12T02:06:58;5.30;99.90
4052;DHT22;2040;50.924;11.604;2023-02-12T02:09:24;5.30;99.90
4052;DHT22;2040;50.924;11.604;2023-02-12T02:11:51;5.30;99.90
4052;DHT22;2040;50.924;11.604;2023-02-12T02:14:36;5.30;99.90
4052;DHT22;2040;50.924;11.604;2023-02-12T02:25:35;5.20;99.90
4052;DHT22;2040;50.924;11.604;2023-02-12T02:28:32;5.20;99.90
4052;DHT22;2040;50.924;11.604;2023-02-12T02:31:25;5.30;99.90
4052;DHT22;2040;50.924;11.604;2023-02-12T02:36:27;5.30;99.90
4052;DHT22;2040;50.924;11.604;2023-02-12T02:42:16;5.20;99.90
4052;DHT22;2040;50.924;11.604;2023-02-12T02:44:50;5.20;99.90
4052;DHT22;2040;50.924;11.604;2023-02-12T02:47:20;5.30;99.90
4052;DHT22;2040;50.924;11.604;2023-02-12T02:49:55;5.20;99.90
4052;DHT22;2040;50.924;11.604;2023-02-12T02:52:34;5.20;99.90
4052;DHT22;2040;50.924;11.604;2023-02-12T02:55:07;5.30;99.90
4052;DHT22;2040;50.924;11.604;2023-02-12T03:00:11;5.30;99.90
4052;DHT22;2040;50.924;11.604;2023-02-12T03:02:40;5.30;99.90
4052;DHT22;2040;50.924;11.604;2023-02-12T03:05:18;5.30;99.90
4052;DHT22;2040;50.924;11.604;2023-02-12T03:07:50;5.20;99.90
4052;DHT22;2040;50.924;11.604;2023-02-12T03:10:23;5.20;99.90
4052;DHT22;2040;50.924;11.604;2023-02-12T03:12:58;5.20;99.90
4052;DHT22;2040;50.924;11.604;2023-02-12T03:15:47;5.10;99.90
4052;DHT22;2040;50.924;11.604;2023-02-12T03:18:19;5.10;99.90
4052;DHT22;2040;50.924;11.604;2023-02-12T03:20:50;5.10;99.90
4052;DHT22;2040;50.924;11.604;2023-02-12T03:23:23;5.20;99.90
4052;DHT22;2040;50.924;11.604;2023-02-12T03:25:52;5.20;99.90
4052;DHT22;2040;50.924;11.604;2023-02-12T03:28:26;5.20;99.90
4052;DHT22;2040;50.924;11.604;2023-02-12T03:31:02;5.20;99.90
4052;DHT22;2040;50.924;11.604;2023-02-12T03:33:41;5.20;99.90
4052;DHT22;2040;50.924;11.604;2023-02-12T03:42:02;5.30;99.90
4052;DHT22;2040;50.924;11.604;2023-02-12T03:44:53;5.30;99.90
4052;DHT22;2040;50.924;11.604;2023-02-12T03:47:30;5.30;99.90
4052;DHT22;2040;50.924;11.604;2023-02-12T03:50:33;5.20;99.90
4052;DHT22;2040;50.924;11.604;2023-02-12T03:53:00;5.20;99.90
4052;DHT22;2040;50.924;11.604;2023-02-12T03:55:26;5.30;99.90
4052;DHT22;2040;50.924;11.604;2023-02-12T03:57:56;5.30;99.90
4052;DHT22;2040;50.924;11.604;2023-02-12T04:00:25;5.30;99.90
4052;DHT22;2040;50.924;11.604;2023-02-12T04:02:52;5.30;99.90
4052;DHT22;2040;50.924;11.604;2023-02-12T04:05:24;5.30;99.90
4052;DHT22;2040;50.924;11.604;2023-02-12T04:07:51;5.30;99.90
4052;DHT22;2040;50.924;11.604;2023-02-12T04:10:21;5.30;99.90
4052;DHT22;2040;50.924;11.604;2023-02-12T04:13:06;5.30;99.90
4052;DHT22;2040;50.924;11.604;2023-02-12T04:15:53;5.30;99.90
4052;DHT22;2040;50.924;11.604;2023-02-12T04:26:38;5.30;99.90
4052;DHT22;2040;50.924;11.604;2023-02-12T04:29:25;5.40;99.90
4052;DHT22;2040;50.924;11.604;2023-02-12T04:35:03;5.30;99.90
4052;DHT22;2040;50.924;11.604;2023-02-12T04:37:46;5.20;99.90
4052;DHT22;2040;50.924;11.604;2023-02-12T04:40:16;5.40;99.90
4052;DHT22;2040;50.924;11.604;2023-02-12T04:42:47;5.40;99.90
4052;DHT22;2040;50.924;11.604;2023-02-12T04:45:19;5.30;99.90
4052;DHT22;2040;50.924;11.604;2023-02-12T04:47:45;5.30;99.90
4052;DHT22;2040;50.924;11.604;2023-02-12T04:50:11;5.20;99.90
4052;DHT22;2040;50.924;11.604;2023-02-12T04:52:37;5.20;99.90
4052;DHT22;2040;50.924;11.604;2023-02-12T04:55:02;5.30;99.90
4052;DHT22;2040;50.924;11.604;2023-02-12T04:57:28;5.20;99.90
4052;DHT22;2040;50.924;11.604;2023-02-12T04:59:53;5.30;99.90
4052;DHT22;2040;50.924;11.604;2023-02-12T05:02:19;5.30;99.90
4052;DHT22;2040;50.924;11.604;2023-02-12T05:04:44;5.30;99.90
4052;DHT22;2040;50.924;11.604;2023-02-12T05:07:11;5.20;99.90
4052;DHT22;2040;50.924;11.604;2023-02-12T05:09:36;5.30;99.90
4052;DHT22;2040;50.924;11.604;2023-02-12T05:12:02;5.30;99.90
4052;DHT22;2040;50.924;11.604;2023-02-12T05:14:28;5.30;99.90
4052;DHT22;2040;50.924;11.604;2023-02-12T05:16:54;5.30;99.90
4052;DHT22;2040;50.924;11.604;2023-02-12T05:19:19;5.20;99.90
4052;DHT22;2040;50.924;11.604;2023-02-12T05:21:45;5.40;99.90
4052;DHT22;2040;50.924;11.604;2023-02-12T05:24:13;5.40;99.90
4052;DHT22;2040;50.924;11.604;2023-02-12T05:26:38;5.40;99.90
4052;DHT22;2040;50.924;11.604;2023-02-12T05:29:04;5.30;99.90
4052;DHT22;2040;50.924;11.604;2023-02-12T05:31:29;5.30;99.90
4052;DHT22;2040;50.924;11.604;2023-02-12T05:33:55;5.20;99.90
4052;DHT22;2040;50.924;11.604;2023-02-12T05:36:22;5.30;99.90
4052;DHT22;2040;50.924;11.604;2023-02-12T05:38:50;5.20;99.90
4052;DHT22;2040;50.924;11.604;2023-02-12T05:41:20;5.30;99.90
4052;DHT22;2040;50.924;11.604;2023-02-12T05:43:47;5.20;99.90
4052;DHT22;2040;50.924;11.604;2023-02-12T05:46:16;5.20;99.90
4052;DHT22;2040;50.924;11.604;2023-02-12T05:48:42;5.40;99.90
4052;DHT22;2040;50.924;11.604;2023-02-12T05:51:10;5.30;99.90
4052;DHT22;2040;50.924;11.604;2023-02-12T05:53:37;5.40;99.90
4052;DHT22;2040;50.924;11.604;2023-02-12T05:58:33;5.30;99.90
4052;DHT22;2040;50.924;11.604;2023-02-12T06:00:58;5.20;99.90
4052;DHT22;2040;50.924;11.604;2023-02-12T06:03:24;5.20;99.90
4052;DHT22;2040;50.924;11.604;2023-02-12T06:05:50;5.20;99.90
4052;DHT22;2040;50.924;11.604;2023-02-12T06:08:16;5.20;99.90
4052;DHT22;2040;50.924;11.604;2023-02-12T06:10:42;5.20;99.90
4052;DHT22;2040;50.924;11.604;2023-02-12T06:13:07;5.20;99.90
4052;DHT22;2040;50.924;11.604;2023-02-12T06:15:35;5.30;99.90
4052;DHT22;2040;50.924;11.604;2023-02-12T06:18:01;5.20;99.90
4052;DHT22;2040;50.924;11.604;2023-02-12T06:20:26;5.20;99.90
4052;DHT22;2040;50.924;11.604;2023-02-12T06:22:52;5.20;99.90
4052;DHT22;2040;50.924;11.604;2023-02-12T06:25:17;5.20;99.90
4052;DHT22;2040;50.924;11.604;2023-02-12T06:27:43;5.20;99.90
4052;DHT22;2040;50.924;11.604;2023-02-12T06:30:09;5.20;99.90
4052;DHT22;2040;50.924;11.604;2023-02-12T06:32:35;5.30;99.90
4052;DHT22;2040;50.924;11.604;2023-02-12T06:35:00;5.20;99.90
4052;DHT22;2040;50.924;11.604;2023-02-12T06:37:26;5.20;99.90
4052;DHT22;2040;50.924;11.604;2023-02-12T06:39:51;5.20;99.90
4052;DHT22;2040;50.924;11.604;2023-02-12T06:42:17;5.20;99.90
4052;DHT22;2040;50.924;11.604;2023-02-12T06:44:42;5.20;99.90
4052;DHT22;2040;50.924;11.604;2023-02-12T06:47:08;5.20;99.90
4052;DHT22;2040;50.924;11.604;2023-02-12T06:49:33;5.20;99.90
4052;DHT22;2040;50.924;11.604;2023-02-12T06:51:59;5.30;99.90
4052;DHT22;2040;50.924;11.604;2023-02-12T06:54:25;5.20;99.90
4052;DHT22;2040;50.924;11.604;2023-02-12T06:56:50;5.30;99.90
4052;DHT22;2040;50.924;11.604;2023-02-12T06:59:16;5.30;99.90
4052;DHT22;2040;50.924;11.604;2023-02-12T07:01:42;5.20;99.90
4052;DHT22;2040;50.924;11.604;2023-02-12T07:04:07;5.20;99.90
4052;DHT22;2040;50.924;11.604;2023-02-12T07:06:34;5.20;99.90
4052;DHT22;2040;50.924;11.604;2023-02-12T07:09:00;5.20;99.90
4052;DHT22;2040;50.924;11.604;2023-02-12T07:11:29;5.20;99.90
4052;DHT22;2040;50.924;11.604;2023-02-12T07:13:54;5.20;99.90
4052;DHT22;2040;50.924;11.604;2023-02-12T07:16:21;5.30;99.90
4052;DHT22;2040;50.924;11.604;2023-02-12T07:18:46;5.30;99.90
4052;DHT22;2040;50.924;11.604;2023-02-12T07:21:13;5.40;99.90
4052;DHT22;2040;50.924;11.604;2023-02-12T07:23:40;5.40;99.90
4052;DHT22;2040;50.924;11.604;2023-02-12T07:26:11;5.30;99.90
4052;DHT22;2040;50.924;11.604;2023-02-12T07:28:37;5.30;99.90
4052;DHT22;2040;50.924;11.604;2023-02-12T07:31:14;5.30;99.90
4052;DHT22;2040;50.924;11.604;2023-02-12T07:33:41;5.40;99.90
4052;DHT22;2040;50.924;11.604;2023-02-12T07:36:10;5.40;99.90
4052;DHT22;2040;50.924;11.604;2023-02-12T07:38:36;5.50;99.90
4052;DHT22;2040;50.924;11.604;2023-02-12T07:41:22;5.60;99.90
4052;DHT22;2040;50.924;11.604;2023-02-12T07:43:52;5.60;99.90
4052;DHT22;2040;50.924;11.604;2023-02-12T07:46:22;5.80;99.90
4052;DHT22;2040;50.924;11.604;2023-02-12T07:48:50;5.70;99.90
4052;DHT22;2040;50.924;11.604;2023-02-12T07:51:17;5.70;99.90
4052;DHT22;2040;50.924;11.604;2023-02-12T07:53:46;5.70;99.90
4052;DHT22;2040;50.924;11.604;2023-02-12T07:56:21;5.60;99.90
4052;DHT22;2040;50.924;11.604;2023-02-12T07:58:49;5.60;99.90
4052;DHT22;2040;50.924;11.604;2023-02-12T08:03:40;5.60;99.90
4052;DHT22;2040;50.924;11.604;2023-02-12T08:06:09;5.70;99.90
4052;DHT22;2040;50.924;11.604;2023-02-12T08:08:35;5.50;99.90
4052;DHT22;2040;50.924;11.604;2023-02-12T08:11:07;5.60;99.90
4052;DHT22;2040;50.924;11.604;2023-02-12T08:13:34;5.60;99.90
4052;DHT22;2040;50.924;11.604;2023-02-12T08:16:05;5.60;99.90
4052;DHT22;2040;50.924;11.604;2023-02-12T08:18:32;5.60;99.90
4052;DHT22;2040;50.924;11.604;2023-02-12T08:21:03;5.60;99.90
4052;DHT22;2040;50.924;11.604;2023-02-12T08:23:29;5.60;99.90
4052;DHT22;2040;50.924;11.604;2023-02-12T08:26:03;5.70;99.90
4052;DHT22;2040;50.924;11.604;2023-02-12T08:28:28;5.70;99.90
4052;DHT22;2040;50.924;11.604;2023-02-12T08:30:59;5.80;99.90
4052;DHT22;2040;50.924;11.604;2023-02-12T08:33:25;5.80;99.90
4052;DHT22;2040;50.924;11.604;2023-02-12T08:36:08;5.90;99.90
4052;DHT22;2040;50.924;11.604;2023-02-12T08:38:35;5.90;99.90
4052;DHT22;2040;50.924;11.604;2023-02-12T08:41:09;6.00;99.90
4052;DHT22;2040;50.924;11.604;2023-02-12T08:43:35;6.00;99.90
4052;DHT22;2040;50.924;11.604;2023-02-12T08:46:10;5.90;99.90
4052;DHT22;2040;50.924;11.604;2023-02-12T08:48:36;5.90;99.90
4052;DHT22;2040;50.924;11.604;2023-02-12T08:53:35;5.90;99.90
4052;DHT22;2040;50.924;11.604;2023-02-12T08:56:01;6.00;99.90
4052;DHT22;2040;50.924;11.604;2023-02-12T08:58:26;6.10;99.90
4052;DHT22;2040;50.924;11.604;2023-02-12T09:00:52;6.10;99.90
4052;DHT22;2040;50.924;11.604;2023-02-12T09:03:17;6.10;99.90
4052;DHT22;2040;50.924;11.604;2023-02-12T09:05:43;6.10;99.90
4052;DHT22;2040;50.924;11.604;2023-02-12T09:08:09;6.10;99.90
4052;DHT22;2040;50.924;11.604;2023-02-12T09:10:38;6.20;99.90
4052;DHT22;2040;50.924;11.604;2023-02-12T09:13:06;6.20;99.90
4052;DHT22;2040;50.924;11.604;2023-02-12T09:15:39;6.20;99.90
4052;DHT22;2040;50.924;11.604;2023-02-12T09:18:05;6.20;99.90
4052;DHT22;2040;50.924;11.604;2023-02-12T09:20:31;6.20;99.90
4052;DHT22;2040;50.924;11.604;2023-02-12T09:22:58;6.30;99.90
4052;DHT22;2040;50.924;11.604;2023-02-12T09:25:23;6.30;99.90
4052;DHT22;2040;50.924;11.604;2023-02-12T09:27:49;6.30;99.90
4052;DHT22;2040;50.924;11.604;2023-02-12T09:30:15;6.30;99.90
4052;DHT22;2040;50.924;11.604;2023-02-12T09:32:41;6.30;99.90
4052;DHT22;2040;50.924;11.604;2023-02-12T09:35:06;6.30;99.90
4052;DHT22;2040;50.924;11.604;2023-02-12T09:37:32;6.30;99.90
4052;DHT22;2040;50.924;11.604;2023-02-12T09:39:58;6.40;99.90
4052;DHT22;2040;50.924;11.604;2023-02-12T09:45:20;6.40;99.90
4052;DHT22;2040;50.924;11.604;2023-02-12T09:47:58;6.40;99.90
4052;DHT22;2040;50.924;11.604;2023-02-12T09:50:34;6.40;99.90
4052;DHT22;2040;50.924;11.604;2023-02-12T09:53:02;6.40;99.90
4052;DHT22;2040;50.924;11.604;2023-02-12T09:55:30;6.40;99.90
4052;DHT22;2040;50.924;11.604;2023-02-12T09:57:57;6.40;99.90
4052;DHT22;2040;50.924;11.604;2023-02-12T10:00:27;6.40;99.90
4052;DHT22;2040;50.924;11.604;2023-02-12T10:02:56;6.40;99.90
4052;DHT22;2040;50.924;11.604;2023-02-12T10:05:30;6.50;99.90
4052;DHT22;2040;50.924;11.604;2023-02-12T10:08:27;6.50;99.90
4052;DHT22;2040;50.924;11.604;2023-02-12T10:23:15;6.60;99.90
4052;DHT22;2040;50.924;11.604;2023-02-12T10:26:00;6.60;99.90
4052;DHT22;2040;50.924;11.604;2023-02-12T10:28:34;6.60;99.90
4052;DHT22;2040;50.924;11.604;2023-02-12T10:31:06;6.60;99.90
4052;DHT22;2040;50.924;11.604;2023-02-12T10:33:40;6.60;99.90
4052;DHT22;2040;50.924;11.604;2023-02-12T10:39:20;6.70;99.90
4052;DHT22;2040;50.924;11.604;2023-02-12T10:41:53;6.70;99.90
4052;DHT22;2040;50.924;11.604;2023-02-12T10:44:19;6.80;99.90
4052;DHT22;2040;50.924;11.604;2023-02-12T10:46:44;6.90;99.90
4052;DHT22;2040;50.924;11.604;2023-02-12T10:49:16;6.90;99.90
4052;DHT22;2040;50.924;11.604;2023-02-12T10:52:08;6.90;99.90
4052;DHT22;2040;50.924;11.604;2023-02-12T10:54:37;7.00;99.90
4052;DHT22;2040;50.924;11.604;2023-02-12T10:57:29;7.00;99.90
4052;DHT22;2040;50.924;11.604;2023-02-12T10:59:58;7.10;99.90
4052;DHT22;2040;50.924;11.604;2023-02-12T11:02:38;7.10;99.90
4052;DHT22;2040;50.924;11.604;2023-02-12T11:05:22;7.10;99.90
4052;DHT22;2040;50.924;11.604;2023-02-12T11:07:49;7.20;99.90
4052;DHT22;2040;50.924;11.604;2023-02-12T11:10:31;7.20;99.90
4052;DHT22;2040;50.924;11.604;2023-02-12T11:13:01;7.20;99.90
4052;DHT22;2040;50.924;11.604;2023-02-12T11:15:31;7.30;99.90
4052;DHT22;2040;50.924;11.604;2023-02-12T11:18:04;7.40;99.90
4052;DHT22;2040;50.924;11.604;2023-02-12T11:20:49;7.50;99.90
4052;DHT22;2040;50.924;11.604;2023-02-12T11:23:29;7.50;99.90
4052;DHT22;2040;50.924;11.604;2023-02-12T11:26:08;7.50;99.90
4052;DHT22;2040;50.924;11.604;2023-02-12T11:28:59;7.60;99.90
4052;DHT22;2040;50.924;11.604;2023-02-12T11:31:33;7.60;99.90
4052;DHT22;2040;50.924;11.604;2023-02-12T11:36:45;7.60;99.90
4052;DHT22;2040;50.924;11.604;2023-02-12T11:39:32;7.70;99.90
4052;DHT22;2040;50.924;11.604;2023-02-12T11:42:14;7.70;99.90
4052;DHT22;2040;50.924;11.604;2023-02-12T11:44:47;7.60;99.90
4052;DHT22;2040;50.924;11.604;2023-02-12T11:47:20;7.60;99.90
4052;DHT22;2040;50.924;11.604;2023-02-12T11:52:39;7.50;99.90
4052;DHT22;2040;50.924;11.604;2023-02-12T11:55:21;7.60;99.90
4052;DHT22;2040;50.924;11.604;2023-02-12T11:57:49;7.60;99.90
4052;DHT22;2040;50.924;11.604;2023-02-12T12:00:24;7.60;99.90
4052;DHT22;2040;50.924;11.604;2023-02-12T12:03:15;7.70;99.90
4052;DHT22;2040;50.924;11.604;2023-02-12T12:05:52;7.80;99.90
4052;DHT22;2040;50.924;11.604;2023-02-12T12:10:57;7.80;99.90
4052;DHT22;2040;50.924;11.604;2023-02-12T12:13:31;7.80;99.90
4052;DHT22;2040;50.924;11.604;2023-02-12T12:16:23;7.80;99.90
4052;DHT22;2040;50.924;11.604;2023-02-12T12:19:15;7.70;99.90
4052;DHT22;2040;50.924;11.604;2023-02-12T12:25:48;7.80;99.90
4052;DHT22;2040;50.924;11.604;2023-02-12T12:34:07;7.70;99.90
4052;DHT22;2040;50.924;11.604;2023-02-12T12:36:41;7.60;99.90
4052;DHT22;2040;50.924;11.604;2023-02-12T12:51:08;7.70;99.90
4052;DHT22;2040;50.924;11.604;2023-02-12T12:54:04;7.80;99.90
4052;DHT22;2040;50.924;11.604;2023-02-12T12:56:57;7.80;99.90
4052;DHT22;2040;50.924;11.604;2023-02-12T12:59:40;7.70;99.90
4052;DHT22;2040;50.924;11.604;2023-02-12T13:02:24;7.70;99.90
4052;DHT22;2040;50.924;11.604;2023-02-12T13:08:03;7.80;99.90
4052;DHT22;2040;50.924;11.604;2023-02-12T13:13:05;7.90;99.90
4052;DHT22;2040;50.924;11.604;2023-02-12T13:15:39;7.90;99.90
4052;DHT22;2040;50.924;11.604;2023-02-12T13:21:17;8.00;99.90
4052;DHT22;2040;50.924;11.604;2023-02-12T13:24:14;8.00;99.90
4052;DHT22;2040;50.924;11.604;2023-02-12T13:26:57;8.10;99.90
4052;DHT22;2040;50.924;11.604;2023-02-12T13:29:31;8.10;99.90
4052;DHT22;2040;50.924;11.604;2023-02-12T13:32:04;8.10;99.90
4052;DHT22;2040;50.924;11.604;2023-02-12T13:34:31;8.10;99.90
4052;DHT22;2040;50.924;11.604;2023-02-12T13:37:03;8.10;99.90
4052;DHT22;2040;50.924;11.604;2023-02-12T13:39:35;8.10;99.90
4052;DHT22;2040;50.924;11.604;2023-02-12T13:42:31;8.20;99.90
4052;DHT22;2040;50.924;11.604;2023-02-12T13:45:18;8.20;99.90
4052;DHT22;2040;50.924;11.604;2023-02-12T13:48:26;8.20;99.90
4052;DHT22;2040;50.924;11.604;2023-02-12T13:56:23;8.20;99.90
4052;DHT22;2040;50.924;11.604;2023-02-12T13:58:51;8.10;99.90
4052;DHT22;2040;50.924;11.604;2023-02-12T14:01:37;8.10;99.90
4052;DHT22;2040;50.924;11.604;2023-02-12T14:04:32;8.20;99.90
4052;DHT22;2040;50.924;11.604;2023-02-12T14:07:02;8.20;99.90
4052;DHT22;2040;50.924;11.604;2023-02-12T14:11:59;8.00;99.90
4052;DHT22;2040;50.924;11.604;2023-02-12T14:14:35;7.90;99.90
4052;DHT22;2040;50.924;11.604;2023-02-12T14:25:32;7.90;99.90
4052;DHT22;2040;50.924;11.604;2023-02-12T14:28:29;7.80;99.90
4052;DHT22;2040;50.924;11.604;2023-02-12T14:31:34;7.80;99.90
4052;DHT22;2040;50.924;11.604;2023-02-12T14:39:03;7.80;99.90
4052;DHT22;2040;50.924;11.604;2023-02-12T14:41:32;7.80;99.90
4052;DHT22;2040;50.924;11.604;2023-02-12T14:46:45;7.80;99.90
4052;DHT22;2040;50.924;11.604;2023-02-12T14:49:22;7.80;99.90
4052;DHT22;2040;50.924;11.604;2023-02-12T15:02:41;7.70;99.90
4052;DHT22;2040;50.924;11.604;2023-02-12T15:05:22;7.70;99.90
4052;DHT22;2040;50.924;11.604;2023-02-12T15:08:03;7.70;99.90
4052;DHT22;2040;50.924;11.604;2023-02-12T15:10:44;7.60;99.90
4052;DHT22;2040;50.924;11.604;2023-02-12T15:15:51;7.50;99.90
4052;DHT22;2040;50.924;11.604;2023-02-12T15:18:23;7.50;99.90
4052;DHT22;2040;50.924;11.604;2023-02-12T15:21:30;7.50;99.90
4052;DHT22;2040;50.924;11.604;2023-02-12T15:24:00;7.40;99.90
4052;DHT22;2040;50.924;11.604;2023-02-12T15:26:26;7.40;99.90
4052;DHT22;2040;50.924;11.604;2023-02-12T15:28:53;7.40;99.90
4052;DHT22;2040;50.924;11.604;2023-02-12T15:31:25;7.40;99.90
4052;DHT22;2040;50.924;11.604;2023-02-12T15:33:52;7.40;99.90
4052;DHT22;2040;50.924;11.604;2023-02-12T15:36:22;7.30;99.90
4052;DHT22;2040;50.924;11.604;2023-02-12T15:39:01;7.30;99.90
4052;DHT22;2040;50.924;11.604;2023-02-12T15:43:57;7.30;99.90
4052;DHT22;2040;50.924;11.604;2023-02-12T15:46:23;7.30;99.90
4052;DHT22;2040;50.924;11.604;2023-02-12T15:48:49;7.30;99.90
4052;DHT22;2040;50.924;11.604;2023-02-12T15:51:16;7.20;99.90
4052;DHT22;2040;50.924;11.604;2023-02-12T15:53:44;7.20;99.90
4052;DHT22;2040;50.924;11.604;2023-02-12T15:56:13;7.20;99.90
4052;DHT22;2040;50.924;11.604;2023-02-12T15:58:49;7.20;99.90
4052;DHT22;2040;50.924;11.604;2023-02-12T16:01:23;7.20;99.90
4052;DHT22;2040;50.924;11.604;2023-02-12T16:03:51;7.20;99.90
4052;DHT22;2040;50.924;11.604;2023-02-12T16:06:18;7.10;99.90
4052;DHT22;2040;50.924;11.604;2023-02-12T16:09:02;7.10;99.90
4052;DHT22;2040;50.924;11.604;2023-02-12T16:11:29;7.00;99.90
4052;DHT22;2040;50.924;11.604;2023-02-12T16:13:58;7.00;99.90
4052;DHT22;2040;50.924;11.604;2023-02-12T16:16:29;7.00;99.90
4052;DHT22;2040;50.924;11.604;2023-02-12T16:21:40;7.00;99.90
4052;DHT22;2040;50.924;11.604;2023-02-12T16:24:21;7.00;99.90
4052;DHT22;2040;50.924;11.604;2023-02-12T16:26:49;6.90;99.90
4052;DHT22;2040;50.924;11.604;2023-02-12T16:29:16;6.90;99.90
4052;DHT22;2040;50.924;11.604;2023-02-12T16:31:56;6.90;99.90
4052;DHT22;2040;50.924;11.604;2023-02-12T16:34:41;6.80;99.90
4052;DHT22;2040;50.924;11.604;2023-02-12T16:37:42;6.80;99.90
4052;DHT22;2040;50.924;11.604;2023-02-12T16:42:57;6.80;99.90
4052;DHT22;2040;50.924;11.604;2023-02-12T16:47:50;6.80;99.90
4052;DHT22;2040;50.924;11.604;2023-02-12T16:50:16;6.70;99.90
4052;DHT22;2040;50.924;11.604;2023-02-12T16:52:42;6.70;99.90
4052;DHT22;2040;50.924;11.604;2023-02-12T16:55:16;6.70;99.90
4052;DHT22;2040;50.924;11.604;2023-02-12T16:57:43;6.70;99.90
4052;DHT22;2040;50.924;11.604;2023-02-12T17:00:14;6.70;99.90
4052;DHT22;2040;50.924;11.604;2023-02-12T17:02:40;6.70;99.90
4052;DHT22;2040;50.924;11.604;2023-02-12T17:05:06;6.70;99.90
4052;DHT22;2040;50.924;11.604;2023-02-12T17:07:32;6.70;99.90
4052;DHT22;2040;50.924;11.604;2023-02-12T17:09:58;6.70;99.90
4052;DHT22;2040;50.924;11.604;2023-02-12T17:12:24;6.60;99.90
4052;DHT22;2040;50.924;11.604;2023-02-12T17:14:50;6.60;99.90
4052;DHT22;2040;50.924;11.604;2023-02-12T17:17:16;6.50;99.90
4052;DHT22;2040;50.924;11.604;2023-02-12T17:19:42;6.60;99.90
4052;DHT22;2040;50.924;11.604;2023-02-12T17:22:22;6.60;99.90
4052;DHT22;2040;50.924;11.604;2023-02-12T17:24:49;6.60;99.90
4052;DHT22;2040;50.924;11.604;2023-02-12T17:27:17;6.60;99.90
4052;DHT22;2040;50.924;11.604;2023-02-12T17:29:42;6.60;99.90
4052;DHT22;2040;50.924;11.604;2023-02-12T17:32:08;6.50;99.90
4052;DHT22;2040;50.924;11.604;2023-02-12T17:34:34;6.50;99.90
4052;DHT22;2040;50.924;11.604;2023-02-12T17:37:02;6.50;99.90
4052;DHT22;2040;50.924;11.604;2023-02-12T17:39:28;6.50;99.90
4052;DHT22;2040;50.924;11.604;2023-02-12T17:41:54;6.50;99.90
4052;DHT22;2040;50.924;11.604;2023-02-12T17:44:19;6.50;99.90
4052;DHT22;2040;50.924;11.604;2023-02-12T17:46:45;6.40;99.90
4052;DHT22;2040;50.924;11.604;2023-02-12T17:49:11;6.40;99.90
4052;DHT22;2040;50.924;11.604;2023-02-12T17:51:37;6.40;99.90
4052;DHT22;2040;50.924;11.604;2023-02-12T17:54:03;6.40;99.90
4052;DHT22;2040;50.924;11.604;2023-02-12T17:56:29;6.40;99.90
4052;DHT22;2040;50.924;11.604;2023-02-12T17:58:54;6.40;99.90
4052;DHT22;2040;50.924;11.604;2023-02-12T18:01:22;6.40;99.90
4052;DHT22;2040;50.924;11.604;2023-02-12T18:03:47;6.30;99.90
4052;DHT22;2040;50.924;11.604;2023-02-12T18:06:21;6.30;99.90
4052;DHT22;2040;50.924;11.604;2023-02-12T18:08:46;6.30;99.90
4052;DHT22;2040;50.924;11.604;2023-02-12T18:11:12;6.30;99.90
4052;DHT22;2040;50.924;11.604;2023-02-12T18:13:38;6.30;99.90
4052;DHT22;2040;50.924;11.604;2023-02-12T18:16:06;6.20;99.90
4052;DHT22;2040;50.924;11.604;2023-02-12T18:18:32;6.30;99.90
4052;DHT22;2040;50.924;11.604;2023-02-12T18:20:58;6.20;99.90
4052;DHT22;2040;50.924;11.604;2023-02-12T18:23:23;6.20;99.90
4052;DHT22;2040;50.924;11.604;2023-02-12T18:25:49;6.20;99.90
4052;DHT22;2040;50.924;11.604;2023-02-12T18:28:14;6.20;99.90
4052;DHT22;2040;50.924;11.604;2023-02-12T18:30:40;6.20;99.90
4052;DHT22;2040;50.924;11.604;2023-02-12T18:33:07;6.20;99.90
4052;DHT22;2040;50.924;11.604;2023-02-12T18:35:33;6.20;99.90
4052;DHT22;2040;50.924;11.604;2023-02-12T18:37:59;6.20;99.90
4052;DHT22;2040;50.924;11.604;2023-02-12T18:40:24;6.10;99.90
4052;DHT22;2040;50.924;11.604;2023-02-12T18:42:50;6.20;99.90
4052;DHT22;2040;50.924;11.604;2023-02-12T18:45:16;6.20;99.90
4052;DHT22;2040;50.924;11.604;2023-02-12T18:47:43;6.20;99.90
4052;DHT22;2040;50.924;11.604;2023-02-12T18:50:09;6.20;99.90
4052;DHT22;2040;50.924;11.604;2023-02-12T18:52:35;6.20;99.90